Weather at Almirante Schroeders Airport

Public forecast

Using degrees Celsius for public forecast. Weather courtesy of forecast.io.

Closest aviation weather report (METAR) to Almirante Schroeders Airport

Report is more than 2 hours old.

Closest report is Captain Fuentes Martinez Airport, 22.1 nm (40.9 km) NNE. Retrieved 2022/07/04 04:00 UTC (3 hours ago):

SCFM 040400Z 10006KT 9999 BKN030 M05/M06 Q0992

Closest aviation forecast (TAF) to Almirante Schroeders Airport

Closest forecast is President Carlos IbaƱez del Campo International Airport, 39.0 nm (72.3 km) NNW. Retrieved 2022/07/04 06:00 UTC (31 minutes ago):

TAF SCCI 040450Z 0406/0506 24005KT 9999 FEW035 TNM03/0410Z TX03/0418Z TEMPO 0406/0410 VRB03KT TEMPO 0406/0410 SCT010 BKN025 BECMG 0414/0416 CAVOK